sensor_id;sensor_type;location;lat;lon;timestamp;P1;durP1;ratioP1;P2;durP2;ratioP2
65405;SDS011;52016;51.228;-2.322;2022-09-12T00:02:53;8.18;;;6.55;;
65405;SDS011;52016;51.228;-2.322;2022-09-12T00:06:36;10.88;;;6.50;;
65405;SDS011;52016;51.228;-2.322;2022-09-12T00:10:18;8.88;;;7.10;;
65405;SDS011;52016;51.228;-2.322;2022-09-12T00:14:00;11.95;;;8.00;;
65405;SDS011;52016;51.228;-2.322;2022-09-12T00:17:42;8.75;;;7.70;;
65405;SDS011;52016;51.228;-2.322;2022-09-12T00:21:24;13.75;;;8.02;;
65405;SDS011;52016;51.228;-2.322;2022-09-12T00:25:06;10.82;;;8.02;;
65405;SDS011;52016;51.228;-2.322;2022-09-12T00:28:48;16.98;;;9.10;;
65405;SDS011;52016;51.228;-2.322;2022-09-12T00:32:30;9.13;;;8.05;;
65405;SDS011;52016;51.228;-2.322;2022-09-12T00:36:13;12.13;;;8.20;;
65405;SDS011;52016;51.228;-2.322;2022-09-12T00:40:00;15.82;;;9.07;;
65405;SDS011;52016;51.228;-2.322;2022-09-12T00:43:46;15.93;;;8.20;;
65405;SDS011;52016;51.228;-2.322;2022-09-12T00:47:33;13.15;;;8.73;;
65405;SDS011;52016;51.228;-2.322;2022-09-12T00:51:17;9.43;;;7.20;;
65405;SDS011;52016;51.228;-2.322;2022-09-12T00:55:07;13.10;;;8.07;;
65405;SDS011;52016;51.228;-2.322;2022-09-12T00:58:57;10.77;;;8.10;;
65405;SDS011;52016;51.228;-2.322;2022-09-12T01:02:43;8.55;;;7.28;;
65405;SDS011;52016;51.228;-2.322;2022-09-12T01:06:32;10.95;;;7.85;;
65405;SDS011;52016;51.228;-2.322;2022-09-12T01:10:17;10.13;;;7.50;;
65405;SDS011;52016;51.228;-2.322;2022-09-12T01:14:00;9.88;;;7.07;;
65405;SDS011;52016;51.228;-2.322;2022-09-12T01:41:35;12.80;;;7.60;;
65405;SDS011;52016;51.228;-2.322;2022-09-12T01:45:50;16.15;;;7.57;;
65405;SDS011;52016;51.228;-2.322;2022-09-12T01:50:03;13.30;;;8.32;;
65405;SDS011;52016;51.228;-2.322;2022-09-12T01:54:07;9.55;;;6.63;;
65405;SDS011;52016;51.228;-2.322;2022-09-12T01:58:04;9.45;;;6.72;;
65405;SDS011;52016;51.228;-2.322;2022-09-12T02:01:52;13.15;;;7.38;;
65405;SDS011;52016;51.228;-2.322;2022-09-12T02:05:49;12.73;;;7.60;;
65405;SDS011;52016;51.228;-2.322;2022-09-12T02:09:35;10.82;;;7.03;;
65405;SDS011;52016;51.228;-2.322;2022-09-12T02:17:33;7.93;;;6.70;;
65405;SDS011;52016;51.228;-2.322;2022-09-12T02:21:23;11.27;;;7.55;;
65405;SDS011;52016;51.228;-2.322;2022-09-12T02:25:08;9.07;;;6.18;;
65405;SDS011;52016;51.228;-2.322;2022-09-12T02:28:52;11.93;;;7.50;;
65405;SDS011;52016;51.228;-2.322;2022-09-12T02:32:35;7.88;;;6.47;;
65405;SDS011;52016;51.228;-2.322;2022-09-12T02:40:16;8.75;;;6.75;;
65405;SDS011;52016;51.228;-2.322;2022-09-12T02:43:58;10.02;;;6.68;;
65405;SDS011;52016;51.228;-2.322;2022-09-12T02:47:42;8.98;;;7.38;;
65405;SDS011;52016;51.228;-2.322;2022-09-12T02:51:29;10.38;;;7.18;;
65405;SDS011;52016;51.228;-2.322;2022-09-12T02:55:11;12.55;;;7.32;;
65405;SDS011;52016;51.228;-2.322;2022-09-12T02:58:56;8.25;;;6.90;;
65405;SDS011;52016;51.228;-2.322;2022-09-12T03:07:00;9.90;;;6.93;;
65405;SDS011;52016;51.228;-2.322;2022-09-12T03:11:17;14.40;;;7.50;;
65405;SDS011;52016;51.228;-2.322;2022-09-12T03:15:26;9.68;;;7.00;;
65405;SDS011;52016;51.228;-2.322;2022-09-12T03:19:32;9.48;;;6.72;;
65405;SDS011;52016;51.228;-2.322;2022-09-12T03:23:30;8.82;;;7.22;;
65405;SDS011;52016;51.228;-2.322;2022-09-12T03:27:26;9.30;;;6.85;;
65405;SDS011;52016;51.228;-2.322;2022-09-12T03:31:21;10.65;;;6.97;;
65405;SDS011;52016;51.228;-2.322;2022-09-12T03:35:03;9.45;;;7.10;;
65405;SDS011;52016;51.228;-2.322;2022-09-12T03:38:44;10.55;;;7.15;;
65405;SDS011;52016;51.228;-2.322;2022-09-12T03:42:26;14.43;;;8.52;;
65405;SDS011;52016;51.228;-2.322;2022-09-12T03:46:08;14.20;;;7.65;;
65405;SDS011;52016;51.228;-2.322;2022-09-12T03:49:50;11.50;;;7.30;;
65405;SDS011;52016;51.228;-2.322;2022-09-12T03:53:35;12.50;;;8.70;;
65405;SDS011;52016;51.228;-2.322;2022-09-12T03:57:17;10.13;;;6.93;;
65405;SDS011;52016;51.228;-2.322;2022-09-12T04:00:59;9.43;;;6.75;;
65405;SDS011;52016;51.228;-2.322;2022-09-12T04:04:41;12.77;;;7.25;;
65405;SDS011;52016;51.228;-2.322;2022-09-12T04:08:23;13.70;;;7.30;;
65405;SDS011;52016;51.228;-2.322;2022-09-12T04:12:06;8.43;;;6.53;;
65405;SDS011;52016;51.228;-2.322;2022-09-12T04:15:54;10.25;;;7.35;;
65405;SDS011;52016;51.228;-2.322;2022-09-12T04:19:37;22.55;;;7.15;;
65405;SDS011;52016;51.228;-2.322;2022-09-12T04:23:19;12.88;;;6.97;;
65405;SDS011;52016;51.228;-2.322;2022-09-12T04:27:00;9.55;;;7.30;;
65405;SDS011;52016;51.228;-2.322;2022-09-12T04:30:48;13.67;;;7.73;;
65405;SDS011;52016;51.228;-2.322;2022-09-12T04:34:30;14.38;;;8.05;;
65405;SDS011;52016;51.228;-2.322;2022-09-12T04:38:13;11.40;;;7.10;;
65405;SDS011;52016;51.228;-2.322;2022-09-12T04:41:55;14.02;;;6.95;;
65405;SDS011;52016;51.228;-2.322;2022-09-12T04:45:37;9.10;;;6.45;;
65405;SDS011;52016;51.228;-2.322;2022-09-12T04:49:19;11.75;;;6.18;;
65405;SDS011;52016;51.228;-2.322;2022-09-12T04:53:01;11.25;;;6.13;;
65405;SDS011;52016;51.228;-2.322;2022-09-12T04:56:43;11.07;;;6.25;;
65405;SDS011;52016;51.228;-2.322;2022-09-12T05:00:26;11.35;;;5.93;;
65405;SDS011;52016;51.228;-2.322;2022-09-12T05:04:09;8.73;;;6.22;;
65405;SDS011;52016;51.228;-2.322;2022-09-12T05:07:53;9.52;;;6.22;;
65405;SDS011;52016;51.228;-2.322;2022-09-12T05:11:35;11.57;;;6.43;;
65405;SDS011;52016;51.228;-2.322;2022-09-12T05:15:39;9.20;;;6.07;;
65405;SDS011;52016;51.228;-2.322;2022-09-12T05:19:21;11.30;;;6.45;;
65405;SDS011;52016;51.228;-2.322;2022-09-12T05:23:03;10.93;;;6.78;;
65405;SDS011;52016;51.228;-2.322;2022-09-12T05:26:45;14.40;;;7.47;;
65405;SDS011;52016;51.228;-2.322;2022-09-12T05:30:27;9.98;;;6.95;;
65405;SDS011;52016;51.228;-2.322;2022-09-12T05:34:09;8.95;;;6.85;;
65405;SDS011;52016;51.228;-2.322;2022-09-12T05:37:51;14.27;;;7.53;;
65405;SDS011;52016;51.228;-2.322;2022-09-12T05:41:33;13.57;;;7.40;;
65405;SDS011;52016;51.228;-2.322;2022-09-12T05:45:16;14.23;;;7.97;;
65405;SDS011;52016;51.228;-2.322;2022-09-12T05:49:01;11.30;;;7.38;;
65405;SDS011;52016;51.228;-2.322;2022-09-12T05:52:48;15.40;;;8.13;;
65405;SDS011;52016;51.228;-2.322;2022-09-12T05:56:31;11.65;;;8.02;;
65405;SDS011;52016;51.228;-2.322;2022-09-12T06:00:14;17.08;;;8.20;;
65405;SDS011;52016;51.228;-2.322;2022-09-12T06:03:58;11.73;;;7.65;;
65405;SDS011;52016;51.228;-2.322;2022-09-12T06:07:44;13.07;;;7.93;;
65405;SDS011;52016;51.228;-2.322;2022-09-12T06:11:28;14.80;;;7.75;;
65405;SDS011;52016;51.228;-2.322;2022-09-12T06:15:11;16.73;;;7.63;;
65405;SDS011;52016;51.228;-2.322;2022-09-12T06:18:55;14.88;;;7.72;;
65405;SDS011;52016;51.228;-2.322;2022-09-12T06:22:47;15.88;;;7.82;;
65405;SDS011;52016;51.228;-2.322;2022-09-12T06:26:33;14.00;;;8.48;;
65405;SDS011;52016;51.228;-2.322;2022-09-12T06:30:15;16.58;;;7.82;;
65405;SDS011;52016;51.228;-2.322;2022-09-12T06:34:03;14.57;;;7.88;;
65405;SDS011;52016;51.228;-2.322;2022-09-12T06:37:48;22.30;;;8.43;;
65405;SDS011;52016;51.228;-2.322;2022-09-12T06:41:30;14.05;;;7.25;;
65405;SDS011;52016;51.228;-2.322;2022-09-12T06:45:12;17.10;;;7.28;;
65405;SDS011;52016;51.228;-2.322;2022-09-12T06:48:56;20.48;;;7.90;;
65405;SDS011;52016;51.228;-2.322;2022-09-12T06:52:39;15.43;;;7.28;;
65405;SDS011;52016;51.228;-2.322;2022-09-12T06:56:22;19.67;;;7.50;;
65405;SDS011;52016;51.228;-2.322;2022-09-12T07:00:06;11.75;;;7.22;;
65405;SDS011;52016;51.228;-2.322;2022-09-12T07:03:50;14.15;;;7.18;;
65405;SDS011;52016;51.228;-2.322;2022-09-12T07:07:33;11.18;;;6.70;;
65405;SDS011;52016;51.228;-2.322;2022-09-12T07:11:17;13.90;;;7.47;;
65405;SDS011;52016;51.228;-2.322;2022-09-12T07:15:00;13.75;;;6.10;;
65405;SDS011;52016;51.228;-2.322;2022-09-12T07:18:42;12.25;;;6.80;;
65405;SDS011;52016;51.228;-2.322;2022-09-12T07:22:26;10.38;;;6.22;;
65405;SDS011;52016;51.228;-2.322;2022-09-12T07:26:11;13.88;;;6.30;;
65405;SDS011;52016;51.228;-2.322;2022-09-12T07:29:54;14.32;;;7.35;;
65405;SDS011;52016;51.228;-2.322;2022-09-12T07:33:36;14.70;;;7.05;;
65405;SDS011;52016;51.228;-2.322;2022-09-12T07:37:19;19.00;;;7.07;;
65405;SDS011;52016;51.228;-2.322;2022-09-12T07:41:00;18.10;;;7.53;;
65405;SDS011;52016;51.228;-2.322;2022-09-12T07:44:50;15.75;;;7.95;;
65405;SDS011;52016;51.228;-2.322;2022-09-12T07:48:33;8.68;;;6.80;;
65405;SDS011;52016;51.228;-2.322;2022-09-12T07:52:15;14.60;;;7.40;;
65405;SDS011;52016;51.228;-2.322;2022-09-12T07:55:56;13.32;;;6.95;;
65405;SDS011;52016;51.228;-2.322;2022-09-12T07:59:38;33.13;;;8.45;;
65405;SDS011;52016;51.228;-2.322;2022-09-12T08:03:36;19.55;;;8.18;;
65405;SDS011;52016;51.228;-2.322;2022-09-12T08:07:22;20.20;;;6.82;;
65405;SDS011;52016;51.228;-2.322;2022-09-12T08:11:06;19.38;;;7.47;;
65405;SDS011;52016;51.228;-2.322;2022-09-12T08:14:49;17.25;;;8.10;;
65405;SDS011;52016;51.228;-2.322;2022-09-12T08:18:31;11.57;;;6.28;;
65405;SDS011;52016;51.228;-2.322;2022-09-12T08:22:14;16.00;;;6.57;;
65405;SDS011;52016;51.228;-2.322;2022-09-12T08:25:59;9.88;;;5.90;;
65405;SDS011;52016;51.228;-2.322;2022-09-12T08:29:46;11.07;;;7.00;;
65405;SDS011;52016;51.228;-2.322;2022-09-12T08:33:28;9.30;;;6.68;;
65405;SDS011;52016;51.228;-2.322;2022-09-12T08:37:13;15.02;;;6.47;;
65405;SDS011;52016;51.228;-2.322;2022-09-12T08:45:04;15.43;;;6.00;;
65405;SDS011;52016;51.228;-2.322;2022-09-12T08:49:01;8.40;;;5.20;;
65405;SDS011;52016;51.228;-2.322;2022-09-12T08:53:01;12.85;;;5.88;;
65405;SDS011;52016;51.228;-2.322;2022-09-12T08:56:57;7.70;;;4.57;;
65405;SDS011;52016;51.228;-2.322;2022-09-12T09:04:49;16.13;;;5.60;;
65405;SDS011;52016;51.228;-2.322;2022-09-12T09:08:50;10.70;;;4.63;;
65405;SDS011;52016;51.228;-2.322;2022-09-12T09:16:48;11.65;;;3.85;;
65405;SDS011;52016;51.228;-2.322;2022-09-12T09:20:40;9.85;;;3.60;;
65405;SDS011;52016;51.228;-2.322;2022-09-12T09:24:37;11.93;;;3.80;;
65405;SDS011;52016;51.228;-2.322;2022-09-12T09:28:29;4.78;;;3.25;;
65405;SDS011;52016;51.228;-2.322;2022-09-12T09:32:16;6.25;;;3.20;;
65405;SDS011;52016;51.228;-2.322;2022-09-12T09:43:42;10.90;;;2.50;;
65405;SDS011;52016;51.228;-2.322;2022-09-12T09:47:24;7.57;;;2.50;;
65405;SDS011;52016;51.228;-2.322;2022-09-12T09:51:06;6.25;;;1.98;;
65405;SDS011;52016;51.228;-2.322;2022-09-12T09:54:54;2.95;;;1.67;;
65405;SDS011;52016;51.228;-2.322;2022-09-12T09:58:41;8.85;;;1.70;;
65405;SDS011;52016;51.228;-2.322;2022-09-12T10:02:23;4.75;;;1.90;;
65405;SDS011;52016;51.228;-2.322;2022-09-12T10:06:19;6.65;;;2.22;;
65405;SDS011;52016;51.228;-2.322;2022-09-12T10:10:16;4.35;;;1.77;;
65405;SDS011;52016;51.228;-2.322;2022-09-12T10:13:59;4.53;;;1.98;;
65405;SDS011;52016;51.228;-2.322;2022-09-12T10:17:42;4.80;;;1.80;;
65405;SDS011;52016;51.228;-2.322;2022-09-12T10:21:30;8.45;;;1.80;;
65405;SDS011;52016;51.228;-2.322;2022-09-12T10:25:14;4.50;;;1.77;;
65405;SDS011;52016;51.228;-2.322;2022-09-12T10:29:01;3.47;;;1.95;;
65405;SDS011;52016;51.228;-2.322;2022-09-12T10:32:46;5.67;;;2.00;;
65405;SDS011;52016;51.228;-2.322;2022-09-12T10:36:34;4.25;;;1.50;;
65405;SDS011;52016;51.228;-2.322;2022-09-12T10:40:54;3.53;;;1.67;;
65405;SDS011;52016;51.228;-2.322;2022-09-12T10:44:35;9.13;;;1.92;;
65405;SDS011;52016;51.228;-2.322;2022-09-12T10:48:24;4.88;;;1.60;;
65405;SDS011;52016;51.228;-2.322;2022-09-12T10:52:15;5.15;;;1.90;;
65405;SDS011;52016;51.228;-2.322;2022-09-12T10:56:12;2.80;;;1.50;;
65405;SDS011;52016;51.228;-2.322;2022-09-12T11:00:16;3.05;;;1.38;;
65405;SDS011;52016;51.228;-2.322;2022-09-12T11:24:36;2.10;;;1.38;;
65405;SDS011;52016;51.228;-2.322;2022-09-12T11:36:27;2.72;;;1.33;;
65405;SDS011;52016;51.228;-2.322;2022-09-12T11:44:36;7.18;;;1.38;;
65405;SDS011;52016;51.228;-2.322;2022-09-12T11:52:42;2.65;;;1.40;;
65405;SDS011;52016;51.228;-2.322;2022-09-12T11:56:24;4.20;;;1.50;;
65405;SDS011;52016;51.228;-2.322;2022-09-12T12:00:13;2.72;;;1.40;;
65405;SDS011;52016;51.228;-2.322;2022-09-12T12:04:00;3.70;;;1.60;;
65405;SDS011;52016;51.228;-2.322;2022-09-12T12:07:52;3.78;;;1.30;;
65405;SDS011;52016;51.228;-2.322;2022-09-12T12:11:37;3.00;;;1.40;;
65405;SDS011;52016;51.228;-2.322;2022-09-12T12:15:25;2.72;;;1.38;;
65405;SDS011;52016;51.228;-2.322;2022-09-12T12:22:55;2.75;;;1.25;;
65405;SDS011;52016;51.228;-2.322;2022-09-12T12:31:02;5.00;;;1.50;;
65405;SDS011;52016;51.228;-2.322;2022-09-12T12:34:41;5.10;;;1.65;;
65405;SDS011;52016;51.228;-2.322;2022-09-12T12:38:31;7.15;;;1.48;;
65405;SDS011;52016;51.228;-2.322;2022-09-12T12:46:18;12.20;;;1.60;;
65405;SDS011;52016;51.228;-2.322;2022-09-12T12:50:19;5.72;;;1.40;;
65405;SDS011;52016;51.228;-2.322;2022-09-12T13:02:26;10.07;;;1.67;;
65405;SDS011;52016;51.228;-2.322;2022-09-12T13:06:19;1.92;;;1.20;;
65405;SDS011;52016;51.228;-2.322;2022-09-12T13:10:20;5.15;;;1.30;;
65405;SDS011;52016;51.228;-2.322;2022-09-12T13:14:30;8.85;;;1.42;;
65405;SDS011;52016;51.228;-2.322;2022-09-12T13:18:38;4.47;;;1.10;;
65405;SDS011;52016;51.228;-2.322;2022-09-12T13:22:32;3.17;;;1.15;;
65405;SDS011;52016;51.228;-2.322;2022-09-12T13:26:21;6.32;;;1.52;;
65405;SDS011;52016;51.228;-2.322;2022-09-12T13:30:07;5.32;;;1.17;;
65405;SDS011;52016;51.228;-2.322;2022-09-12T13:33:58;5.57;;;1.55;;
65405;SDS011;52016;51.228;-2.322;2022-09-12T13:45:26;5.28;;;1.23;;
65405;SDS011;52016;51.228;-2.322;2022-09-12T13:49:19;4.78;;;1.33;;
65405;SDS011;52016;51.228;-2.322;2022-09-12T13:53:16;4.28;;;1.38;;
65405;SDS011;52016;51.228;-2.322;2022-09-12T13:56:59;3.83;;;1.20;;
65405;SDS011;52016;51.228;-2.322;2022-09-12T14:00:42;4.60;;;1.20;;
65405;SDS011;52016;51.228;-2.322;2022-09-12T14:04:25;6.10;;;1.50;;
65405;SDS011;52016;51.228;-2.322;2022-09-12T14:08:26;3.33;;;1.10;;
65405;SDS011;52016;51.228;-2.322;2022-09-12T14:16:05;4.88;;;1.42;;
65405;SDS011;52016;51.228;-2.322;2022-09-12T14:19:51;3.03;;;1.33;;
65405;SDS011;52016;51.228;-2.322;2022-09-12T14:23:33;5.32;;;1.25;;
65405;SDS011;52016;51.228;-2.322;2022-09-12T14:27:22;1.65;;;1.10;;
65405;SDS011;52016;51.228;-2.322;2022-09-12T14:31:21;4.00;;;1.35;;
65405;SDS011;52016;51.228;-2.322;2022-09-12T14:38:56;2.90;;;1.20;;
65405;SDS011;52016;51.228;-2.322;2022-09-12T14:42:44;7.15;;;1.15;;
65405;SDS011;52016;51.228;-2.322;2022-09-12T14:50:16;6.85;;;1.48;;
65405;SDS011;52016;51.228;-2.322;2022-09-12T14:54:02;1.67;;;1.20;;
65405;SDS011;52016;51.228;-2.322;2022-09-12T14:57:44;7.97;;;1.30;;
65405;SDS011;52016;51.228;-2.322;2022-09-12T15:01:26;3.33;;;1.27;;
65405;SDS011;52016;51.228;-2.322;2022-09-12T15:08:53;2.70;;;1.15;;
65405;SDS011;52016;51.228;-2.322;2022-09-12T15:12:37;3.75;;;1.45;;
65405;SDS011;52016;51.228;-2.322;2022-09-12T15:16:18;12.50;;;1.58;;
65405;SDS011;52016;51.228;-2.322;2022-09-12T15:20:00;3.97;;;1.30;;
65405;SDS011;52016;51.228;-2.322;2022-09-12T15:23:44;1.92;;;1.27;;
65405;SDS011;52016;51.228;-2.322;2022-09-12T15:27:28;4.88;;;1.40;;
65405;SDS011;52016;51.228;-2.322;2022-09-12T15:31:29;3.33;;;1.23;;
65405;SDS011;52016;51.228;-2.322;2022-09-12T15:35:19;4.65;;;1.40;;
65405;SDS011;52016;51.228;-2.322;2022-09-12T15:39:03;6.82;;;1.50;;
65405;SDS011;52016;51.228;-2.322;2022-09-12T15:42:45;4.50;;;1.30;;
65405;SDS011;52016;51.228;-2.322;2022-09-12T15:46:27;3.13;;;1.10;;
65405;SDS011;52016;51.228;-2.322;2022-09-12T15:50:08;4.03;;;1.30;;
65405;SDS011;52016;51.228;-2.322;2022-09-12T15:53:51;7.40;;;1.23;;
65405;SDS011;52016;51.228;-2.322;2022-09-12T15:57:33;3.88;;;1.42;;
65405;SDS011;52016;51.228;-2.322;2022-09-12T16:01:15;3.80;;;1.30;;
65405;SDS011;52016;51.228;-2.322;2022-09-12T16:04:57;3.03;;;1.50;;
65405;SDS011;52016;51.228;-2.322;2022-09-12T16:08:39;4.25;;;1.20;;
65405;SDS011;52016;51.228;-2.322;2022-09-12T16:12:21;6.97;;;1.65;;
65405;SDS011;52016;51.228;-2.322;2022-09-12T16:16:03;7.32;;;1.60;;
65405;SDS011;52016;51.228;-2.322;2022-09-12T16:19:45;6.00;;;1.42;;
65405;SDS011;52016;51.228;-2.322;2022-09-12T16:23:27;5.82;;;1.98;;
65405;SDS011;52016;51.228;-2.322;2022-09-12T16:27:08;2.72;;;1.25;;
65405;SDS011;52016;51.228;-2.322;2022-09-12T16:30:54;4.03;;;1.77;;
65405;SDS011;52016;51.228;-2.322;2022-09-12T16:34:43;10.90;;;1.42;;
65405;SDS011;52016;51.228;-2.322;2022-09-12T16:38:24;3.58;;;1.17;;
65405;SDS011;52016;51.228;-2.322;2022-09-12T16:42:06;2.65;;;1.50;;
65405;SDS011;52016;51.228;-2.322;2022-09-12T16:45:48;2.80;;;1.52;;
65405;SDS011;52016;51.228;-2.322;2022-09-12T16:49:30;3.17;;;1.27;;
65405;SDS011;52016;51.228;-2.322;2022-09-12T16:53:12;2.85;;;1.40;;
65405;SDS011;52016;51.228;-2.322;2022-09-12T16:56:54;5.63;;;1.40;;
65405;SDS011;52016;51.228;-2.322;2022-09-12T17:00:36;4.10;;;1.90;;
65405;SDS011;52016;51.228;-2.322;2022-09-12T17:04:17;6.32;;;1.73;;
65405;SDS011;52016;51.228;-2.322;2022-09-12T17:08:03;2.78;;;1.58;;
65405;SDS011;52016;51.228;-2.322;2022-09-12T17:11:45;4.57;;;1.50;;
65405;SDS011;52016;51.228;-2.322;2022-09-12T17:15:28;3.88;;;1.40;;
65405;SDS011;52016;51.228;-2.322;2022-09-12T17:19:11;2.20;;;1.20;;
65405;SDS011;52016;51.228;-2.322;2022-09-12T17:22:56;3.10;;;1.30;;
65405;SDS011;52016;51.228;-2.322;2022-09-12T17:26:37;5.43;;;1.50;;
65405;SDS011;52016;51.228;-2.322;2022-09-12T17:30:19;4.35;;;1.58;;
65405;SDS011;52016;51.228;-2.322;2022-09-12T17:34:02;3.90;;;1.30;;
65405;SDS011;52016;51.228;-2.322;2022-09-12T17:37:44;2.70;;;1.50;;
65405;SDS011;52016;51.228;-2.322;2022-09-12T17:41:26;2.85;;;1.50;;
65405;SDS011;52016;51.228;-2.322;2022-09-12T17:45:10;4.88;;;1.65;;
65405;SDS011;52016;51.228;-2.322;2022-09-12T17:48:58;5.03;;;1.98;;
65405;SDS011;52016;51.228;-2.322;2022-09-12T17:52:41;4.97;;;2.17;;
65405;SDS011;52016;51.228;-2.322;2022-09-12T17:56:22;9.95;;;2.17;;
65405;SDS011;52016;51.228;-2.322;2022-09-12T18:00:04;6.15;;;1.50;;
65405;SDS011;52016;51.228;-2.322;2022-09-12T18:03:47;3.40;;;1.50;;
65405;SDS011;52016;51.228;-2.322;2022-09-12T18:07:29;3.47;;;1.50;;
65405;SDS011;52016;51.228;-2.322;2022-09-12T18:11:12;6.18;;;1.40;;
65405;SDS011;52016;51.228;-2.322;2022-09-12T18:14:53;10.05;;;1.42;;
65405;SDS011;52016;51.228;-2.322;2022-09-12T18:18:35;3.58;;;1.50;;
65405;SDS011;52016;51.228;-2.322;2022-09-12T18:22:17;2.75;;;1.13;;
65405;SDS011;52016;51.228;-2.322;2022-09-12T18:26:00;2.72;;;1.55;;
65405;SDS011;52016;51.228;-2.322;2022-09-12T18:29:47;6.13;;;1.70;;
65405;SDS011;52016;51.228;-2.322;2022-09-12T18:33:49;4.65;;;1.90;;
65405;SDS011;52016;51.228;-2.322;2022-09-12T18:37:30;7.10;;;2.38;;
65405;SDS011;52016;51.228;-2.322;2022-09-12T18:41:16;3.95;;;1.80;;
65405;SDS011;52016;51.228;-2.322;2022-09-12T18:44:59;2.13;;;1.92;;
65405;SDS011;52016;51.228;-2.322;2022-09-12T18:48:41;7.35;;;3.13;;
65405;SDS011;52016;51.228;-2.322;2022-09-12T18:52:25;4.82;;;2.13;;
65405;SDS011;52016;51.228;-2.322;2022-09-12T18:56:12;7.90;;;3.60;;
65405;SDS011;52016;51.228;-2.322;2022-09-12T18:59:54;4.93;;;3.20;;
65405;SDS011;52016;51.228;-2.322;2022-09-12T19:03:39;8.70;;;3.80;;
65405;SDS011;52016;51.228;-2.322;2022-09-12T19:07:22;8.88;;;5.05;;
65405;SDS011;52016;51.228;-2.322;2022-09-12T19:11:04;14.55;;;7.63;;
65405;SDS011;52016;51.228;-2.322;2022-09-12T19:14:46;21.42;;;15.43;;
65405;SDS011;52016;51.228;-2.322;2022-09-12T19:18:28;24.50;;;17.67;;
65405;SDS011;52016;51.228;-2.322;2022-09-12T19:22:11;25.00;;;17.55;;
65405;SDS011;52016;51.228;-2.322;2022-09-12T19:26:00;24.52;;;13.88;;
65405;SDS011;52016;51.228;-2.322;2022-09-12T19:29:44;19.48;;;12.45;;
65405;SDS011;52016;51.228;-2.322;2022-09-12T19:33:26;18.73;;;11.30;;
65405;SDS011;52016;51.228;-2.322;2022-09-12T19:37:08;20.95;;;9.27;;
65405;SDS011;52016;51.228;-2.322;2022-09-12T19:40:59;15.55;;;8.90;;
65405;SDS011;52016;51.228;-2.322;2022-09-12T19:44:43;21.38;;;11.73;;
65405;SDS011;52016;51.228;-2.322;2022-09-12T19:48:25;24.48;;;14.15;;
65405;SDS011;52016;51.228;-2.322;2022-09-12T19:52:07;28.42;;;14.50;;
65405;SDS011;52016;51.228;-2.322;2022-09-12T19:55:49;25.88;;;13.75;;
65405;SDS011;52016;51.228;-2.322;2022-09-12T19:59:31;26.90;;;13.73;;
65405;SDS011;52016;51.228;-2.322;2022-09-12T20:03:13;22.08;;;13.25;;
65405;SDS011;52016;51.228;-2.322;2022-09-12T20:06:54;22.08;;;9.75;;
65405;SDS011;52016;51.228;-2.322;2022-09-12T20:10:36;17.98;;;8.38;;
65405;SDS011;52016;51.228;-2.322;2022-09-12T20:14:18;9.15;;;5.20;;
65405;SDS011;52016;51.228;-2.322;2022-09-12T20:18:01;11.30;;;3.70;;
65405;SDS011;52016;51.228;-2.322;2022-09-12T20:21:43;5.40;;;3.15;;
65405;SDS011;52016;51.228;-2.322;2022-09-12T20:25:25;5.50;;;2.53;;
65405;SDS011;52016;51.228;-2.322;2022-09-12T20:29:07;6.55;;;4.72;;
65405;SDS011;52016;51.228;-2.322;2022-09-12T20:32:49;5.70;;;2.70;;
65405;SDS011;52016;51.228;-2.322;2022-09-12T20:36:31;6.05;;;2.28;;
65405;SDS011;52016;51.228;-2.322;2022-09-12T20:40:14;10.45;;;2.20;;
65405;SDS011;52016;51.228;-2.322;2022-09-12T20:43:56;10.23;;;2.40;;
65405;SDS011;52016;51.228;-2.322;2022-09-12T20:47:37;5.07;;;2.17;;
65405;SDS011;52016;51.228;-2.322;2022-09-12T20:51:20;5.53;;;2.60;;
65405;SDS011;52016;51.228;-2.322;2022-09-12T20:55:02;5.35;;;2.40;;
65405;SDS011;52016;51.228;-2.322;2022-09-12T20:58:44;6.60;;;2.10;;
65405;SDS011;52016;51.228;-2.322;2022-09-12T21:02:26;6.13;;;2.53;;
65405;SDS011;52016;51.228;-2.322;2022-09-12T21:06:10;4.13;;;1.92;;
65405;SDS011;52016;51.228;-2.322;2022-09-12T21:09:53;4.68;;;2.13;;
65405;SDS011;52016;51.228;-2.322;2022-09-12T21:13:35;5.20;;;2.60;;
65405;SDS011;52016;51.228;-2.322;2022-09-12T21:17:17;9.40;;;6.10;;
65405;SDS011;52016;51.228;-2.322;2022-09-12T21:20:59;7.82;;;3.63;;
65405;SDS011;52016;51.228;-2.322;2022-09-12T21:24:41;8.18;;;2.65;;
65405;SDS011;52016;51.228;-2.322;2022-09-12T21:28:23;4.68;;;2.72;;
65405;SDS011;52016;51.228;-2.322;2022-09-12T21:32:04;4.60;;;2.70;;
65405;SDS011;52016;51.228;-2.322;2022-09-12T21:35:51;6.07;;;2.50;;
65405;SDS011;52016;51.228;-2.322;2022-09-12T21:39:32;4.50;;;3.20;;
65405;SDS011;52016;51.228;-2.322;2022-09-12T21:43:14;9.45;;;4.00;;
65405;SDS011;52016;51.228;-2.322;2022-09-12T21:46:56;6.38;;;3.25;;
65405;SDS011;52016;51.228;-2.322;2022-09-12T21:50:38;8.05;;;3.40;;
65405;SDS011;52016;51.228;-2.322;2022-09-12T21:54:20;7.28;;;3.28;;
65405;SDS011;52016;51.228;-2.322;2022-09-12T21:58:02;10.75;;;3.33;;
65405;SDS011;52016;51.228;-2.322;2022-09-12T22:01:44;6.70;;;3.05;;
65405;SDS011;52016;51.228;-2.322;2022-09-12T22:05:25;4.93;;;2.85;;
65405;SDS011;52016;51.228;-2.322;2022-09-12T22:09:10;5.63;;;2.80;;
65405;SDS011;52016;51.228;-2.322;2022-09-12T22:12:52;12.95;;;3.15;;
65405;SDS011;52016;51.228;-2.322;2022-09-12T22:16:33;5.50;;;2.30;;
65405;SDS011;52016;51.228;-2.322;2022-09-12T22:20:15;7.60;;;2.95;;
65405;SDS011;52016;51.228;-2.322;2022-09-12T22:23:57;7.00;;;2.50;;
65405;SDS011;52016;51.228;-2.322;2022-09-12T22:27:58;7.88;;;2.40;;
65405;SDS011;52016;51.228;-2.322;2022-09-12T22:31:40;14.43;;;2.70;;
65405;SDS011;52016;51.228;-2.322;2022-09-12T22:35:22;7.20;;;2.38;;
65405;SDS011;52016;51.228;-2.322;2022-09-12T22:39:04;6.45;;;2.50;;
65405;SDS011;52016;51.228;-2.322;2022-09-12T22:42:46;6.47;;;2.78;;
65405;SDS011;52016;51.228;-2.322;2022-09-12T22:46:28;6.30;;;2.85;;
65405;SDS011;52016;51.228;-2.322;2022-09-12T22:50:10;7.15;;;2.72;;
65405;SDS011;52016;51.228;-2.322;2022-09-12T22:53:52;9.82;;;2.75;;
65405;SDS011;52016;51.228;-2.322;2022-09-12T22:57:34;7.78;;;2.65;;
65405;SDS011;52016;51.228;-2.322;2022-09-12T23:01:16;5.28;;;2.70;;
65405;SDS011;52016;51.228;-2.322;2022-09-12T23:04:58;6.43;;;3.08;;
65405;SDS011;52016;51.228;-2.322;2022-09-12T23:08:40;4.80;;;2.60;;
65405;SDS011;52016;51.228;-2.322;2022-09-12T23:12:22;7.63;;;3.05;;
65405;SDS011;52016;51.228;-2.322;2022-09-12T23:16:05;6.95;;;3.40;;
65405;SDS011;52016;51.228;-2.322;2022-09-12T23:19:48;7.47;;;3.67;;
65405;SDS011;52016;51.228;-2.322;2022-09-12T23:23:30;6.22;;;3.30;;
65405;SDS011;52016;51.228;-2.322;2022-09-12T23:27:12;7.30;;;3.63;;
65405;SDS011;52016;51.228;-2.322;2022-09-12T23:30:54;4.65;;;3.17;;
65405;SDS011;52016;51.228;-2.322;2022-09-12T23:34:36;6.82;;;3.33;;
65405;SDS011;52016;51.228;-2.322;2022-09-12T23:38:18;8.18;;;3.50;;
65405;SDS011;52016;51.228;-2.322;2022-09-12T23:42:00;4.88;;;3.10;;
65405;SDS011;52016;51.228;-2.322;2022-09-12T23:45:42;5.32;;;3.60;;
65405;SDS011;52016;51.228;-2.322;2022-09-12T23:49:23;6.57;;;3.40;;
65405;SDS011;52016;51.228;-2.322;2022-09-12T23:53:05;6.43;;;3.75;;
65405;SDS011;52016;51.228;-2.322;2022-09-12T23:56:47;9.75;;;3.42;;
